Time;durP1;ratioP1;P1;durP2;ratioP2;P2;SDS_P1;SDS_P2;PMS_P1;PMS_P2;Temp;Humidity;BMP_temperature;BMP_pressure;BME280_temperature;BME280_humidity;BME280_pressure;Samples;Min_cycle;Max_cycle;Signal;HPM_P1;HPM_P2
2022/11/11 00:00:12;;;;;;;24.07;17.37;;;;;;;8.40;100.00;100524.75;1695137;84;21059;-65
2022/11/11 00:02:57;;;;;;;26.23;17.90;;;;;;;8.41;100.00;100527.23;1693043;84;20980;-66
2022/11/11 00:05:43;;;;;;;24.18;17.37;;;;;;;8.40;100.00;100524.22;1685554;84;21031;-66
2022/11/11 00:08:27;;;;;;;23.70;16.82;;;;;;;8.39;100.00;100528.02;1694899;84;20996;-66
2022/11/11 00:11:13;;;;;;;22.75;16.17;;;;;;;8.38;100.00;100530.44;1689465;84;21465;-65
2022/11/11 00:13:57;;;;;;;22.17;16.32;;;;;;;8.38;100.00;100530.96;1684714;84;21036;-66
2022/11/11 00:25:52;;;;;;;21.37;15.83;;;;;;;8.38;100.00;100536.38;1692784;84;21073;-66
2022/11/11 00:28:37;;;;;;;18.17;15.28;;;;;;;8.39;100.00;100539.41;1688449;83;21876;-66
2022/11/11 00:31:23;;;;;;;17.98;15.20;;;;;;;8.40;100.00;100544.57;1684857;84;21052;-66
2022/11/11 00:34:07;;;;;;;19.30;15.15;;;;;;;8.40;100.00;100535.60;1693345;84;21004;-66
2022/11/11 00:36:52;;;;;;;19.32;14.85;;;;;;;8.40;100.00;100539.67;1692362;84;21032;-66
2022/11/11 00:39:37;;;;;;;19.32;14.35;;;;;;;8.40;100.00;100529.65;1685905;84;21091;-66
2022/11/11 00:42:21;;;;;;;17.73;13.53;;;;;;;8.43;100.00;100535.95;1691064;84;21024;-66
2022/11/11 00:45:07;;;;;;;17.87;13.75;;;;;;;8.47;100.00;100534.42;1689350;84;21582;-65
2022/11/11 00:50:58;;;;;;;20.15;14.63;;;;;;;8.48;100.00;100536.08;1674639;85;21032;-66
2022/11/11 00:53:41;;;;;;;20.80;15.13;;;;;;;8.42;100.00;100534.85;1698720;84;21067;-66
2022/11/11 00:56:26;;;;;;;16.62;12.68;;;;;;;8.44;100.00;100538.14;1718532;81;21612;-66
2022/11/11 00:59:10;;;;;;;17.50;13.80;;;;;;;8.49;100.00;100546.41;1727892;82;20987;-66
2022/11/11 01:01:55;;;;;;;17.95;13.13;;;;;;;8.54;100.00;100547.85;1736306;82;21019;-66
2022/11/11 01:04:39;;;;;;;15.78;12.58;;;;;;;8.55;100.00;100552.22;1734620;82;21090;-66
2022/11/11 01:07:25;;;;;;;17.15;12.37;;;;;;;8.55;100.00;100550.03;1737332;82;21463;-66
2022/11/11 01:10:10;;;;;;;15.35;12.28;;;;;;;8.54;100.00;100553.84;1736871;82;21027;-66
2022/11/11 01:13:10;;;;;;;14.25;11.68;;;;;;;8.51;100.00;100549.69;1734536;82;20967;-66
2022/11/11 01:15:47;;;;;;;15.20;11.48;;;;;;;8.54;100.00;100551.12;1732860;82;21106;-66
2022/11/11 01:18:32;;;;;;;14.55;11.78;;;;;;;8.55;100.00;100551.39;1740798;82;20995;-66
2022/11/11 01:21:23;;;;;;;14.95;11.33;;;;;;;8.55;100.00;100563.61;1737841;82;21070;-66
2022/11/11 01:24:08;;;;;;;15.95;10.90;;;;;;;8.57;100.00;100555.55;1733967;82;20979;-66
2022/11/11 01:26:53;;;;;;;13.62;10.40;;;;;;;8.58;100.00;100558.52;1733083;82;21011;-66
2022/11/11 01:29:38;;;;;;;11.90;9.75;;;;;;;8.58;100.00;100560.41;1727424;82;21609;-66
2022/11/11 01:32:23;;;;;;;13.55;9.78;;;;;;;8.58;100.00;100568.55;1737260;82;21010;-66
2022/11/11 01:35:08;;;;;;;12.45;9.75;;;;;;;8.61;100.00;100562.67;1726223;82;21059;-66
2022/11/11 01:37:55;;;;;;;12.95;8.98;;;;;;;8.64;100.00;100568.98;1707364;82;20983;-66
2022/11/11 01:40:42;;;;;;;12.13;9.58;;;;;;;8.74;100.00;100561.05;1702359;82;21031;-66
2022/11/11 01:43:26;;;;;;;12.58;9.43;;;;;;;8.77;100.00;100565.98;1738327;82;21042;-66
2022/11/11 01:46:25;;;;;;;13.68;9.98;;;;;;;8.75;100.00;100569.48;1741358;82;21043;-66
2022/11/11 01:49:34;;;;;;;11.57;9.30;;;;;;;8.73;100.00;100565.64;1728760;82;21406;-66
2022/11/11 01:52:33;;;;;;;11.30;8.50;;;;;;;8.78;100.00;100567.65;1735619;82;21054;-66
2022/11/11 01:55:19;;;;;;;11.80;9.10;;;;;;;8.82;100.00;100563.39;1743861;81;21111;-66
2022/11/11 01:58:08;;;;;;;14.40;9.40;;;;;;;8.81;100.00;100569.35;1733587;82;21680;-66
2022/11/11 02:00:52;;;;;;;11.03;9.15;;;;;;;8.82;100.00;100572.89;1735516;82;21524;-66
2022/11/11 02:03:39;;;;;;;13.93;9.65;;;;;;;8.80;100.00;100575.84;1735872;82;20979;-66
2022/11/11 02:06:26;;;;;;;11.73;8.93;;;;;;;8.80;100.00;100573.13;1743126;82;21113;-66
2022/11/11 02:09:11;;;;;;;12.25;9.00;;;;;;;8.80;100.00;100579.91;1735042;82;21595;-66
2022/11/11 02:16:37;;;;;;;11.50;9.05;;;;;;;8.78;100.00;100584.77;1743346;80;21699;-66
2022/11/11 02:19:27;;;;;;;12.58;9.75;;;;;;;8.77;100.00;100584.47;1736900;81;21074;-67
2022/11/11 02:22:21;;;;;;;10.08;8.50;;;;;;;8.81;100.00;100583.45;1726088;81;21049;-65
2022/11/11 02:25:08;;;;;;;11.80;9.03;;;;;;;8.80;100.00;100581.80;1709352;81;21101;-65
2022/11/11 02:27:53;;;;;;;10.18;8.48;;;;;;;8.80;100.00;100581.80;1726732;81;21038;-65
2022/11/11 02:30:38;;;;;;;11.73;8.28;;;;;;;8.80;100.00;100588.58;1739910;81;21603;-65
2022/11/11 02:33:23;;;;;;;9.80;7.95;;;;;;;8.81;100.00;100583.45;1730417;81;22263;-65
2022/11/11 02:36:10;;;;;;;11.80;8.85;;;;;;;8.85;100.00;100579.20;1744549;80;21616;-66
2022/11/11 02:38:55;;;;;;;10.20;8.38;;;;;;;8.84;100.00;100580.25;1745665;81;21426;-66
2022/11/11 02:41:57;;;;;;;10.05;8.08;;;;;;;8.88;100.00;100584.97;1731287;81;21647;-65
2022/11/11 02:44:42;;;;;;;10.60;8.23;;;;;;;8.90;100.00;100588.79;1741616;80;21119;-66
2022/11/11 02:47:27;;;;;;;10.10;8.13;;;;;;;8.92;100.00;100588.03;1737179;82;21556;-67
2022/11/11 02:50:12;;;;;;;10.50;8.13;;;;;;;8.91;100.00;100592.64;1731670;80;21141;-67
2022/11/11 02:52:57;;;;;;;10.90;8.78;;;;;;;8.93;100.00;100588.30;1734303;81;21065;-68
2022/11/11 02:55:42;;;;;;;11.08;8.75;;;;;;;8.93;100.00;100591.85;1741389;82;21091;-67
2022/11/11 02:58:27;;;;;;;10.93;8.48;;;;;;;8.96;100.00;100591.36;1734048;81;21114;-68
2022/11/11 03:01:18;;;;;;;13.18;9.45;;;;;;;9.00;100.00;100588.99;1734826;81;21070;-67
2022/11/11 03:03:59;;;;;;;13.30;10.10;;;;;;;8.97;100.00;100584.05;1743822;81;20979;-67
2022/11/11 03:06:44;;;;;;;13.83;10.13;;;;;;;8.97;100.00;100592.19;1741443;81;21751;-67
2022/11/11 03:09:28;;;;;;;11.55;9.70;;;;;;;8.97;100.00;100591.66;1736822;80;20997;-67
2022/11/11 03:12:14;;;;;;;12.05;9.60;;;;;;;9.00;100.00;100592.54;1736060;81;21101;-67
2022/11/11 03:14:59;;;;;;;12.80;9.60;;;;;;;9.03;100.00;100602.12;1730826;81;21050;-66
2022/11/11 03:17:44;;;;;;;12.98;9.70;;;;;;;9.03;100.00;100597.22;1721263;82;21014;-66
2022/11/11 03:23:33;;;;;;;12.68;10.23;;;;;;;9.03;100.00;100583.63;1722660;82;21639;-66
2022/11/11 03:26:19;;;;;;;14.07;10.10;;;;;;;9.03;100.00;100591.25;1708454;82;22291;-66
2022/11/11 03:29:04;;;;;;;15.32;10.68;;;;;;;9.07;100.00;100609.25;1716571;82;21073;-66
2022/11/11 03:31:49;;;;;;;12.85;10.05;;;;;;;9.09;100.00;100604.39;1724624;82;21090;-65
2022/11/11 03:34:34;;;;;;;16.12;11.40;;;;;;;9.11;100.00;100603.08;1722469;80;21011;-66
2022/11/11 03:40:22;;;;;;;13.45;10.18;;;;;;;9.08;100.00;100601.38;1725805;81;21663;-66
2022/11/11 03:43:08;;;;;;;14.43;10.65;;;;;;;9.04;100.00;100601.03;1721953;82;21074;-66
2022/11/11 03:45:57;;;;;;;14.63;10.78;;;;;;;9.08;100.00;100604.92;1732754;81;21067;-66
2022/11/11 03:48:43;;;;;;;15.15;10.82;;;;;;;9.07;100.00;100614.13;1721369;82;21066;-66
2022/11/11 03:51:28;;;;;;;13.98;10.08;;;;;;;9.08;100.00;100619.03;1721462;82;21073;-66
2022/11/11 03:54:17;;;;;;;16.87;11.35;;;;;;;9.06;100.00;100622.00;1715087;82;21038;-66
2022/11/11 04:00:04;;;;;;;15.23;11.78;;;;;;;9.07;100.00;100633.70;1727840;82;21058;-66
2022/11/11 04:12:00;;;;;;;18.27;12.68;;;;;;;8.98;100.00;100638.13;1722471;82;21719;-65
2022/11/11 04:17:51;;;;;;;21.90;14.35;;;;;;;8.98;100.00;100644.09;1720921;81;21042;-66
2022/11/11 04:23:40;;;;;;;21.42;14.15;;;;;;;8.99;100.00;100639.80;1737279;81;21082;-67
2022/11/11 04:26:25;;;;;;;18.10;13.38;;;;;;;8.97;100.00;100646.50;1738945;81;21709;-67
2022/11/11 04:29:28;;;;;;;19.50;14.13;;;;;;;8.96;100.00;100648.39;1738278;81;21065;-67
2022/11/11 04:35:22;;;;;;;19.07;13.72;;;;;;;9.00;100.00;100651.45;1733997;81;21377;-68
2022/11/11 04:41:11;;;;;;;19.10;13.48;;;;;;;8.99;100.00;100647.11;1729955;81;21934;-67
2022/11/11 04:47:01;;;;;;;19.95;13.43;;;;;;;9.08;100.00;100650.27;1729966;81;20997;-67
2022/11/11 04:49:46;;;;;;;18.23;14.05;;;;;;;9.06;100.00;100650.52;1731399;81;21588;-66
2022/11/11 04:52:31;;;;;;;21.33;14.63;;;;;;;9.00;100.00;100654.17;1733495;81;21015;-68
2022/11/11 04:58:20;;;;;;;20.77;13.38;;;;;;;9.05;100.00;100657.01;1738762;81;20984;-67
2022/11/11 05:01:06;;;;;;;17.73;13.50;;;;;;;9.12;100.00;100663.13;1731997;80;21068;-66
2022/11/11 05:03:50;;;;;;;17.87;13.53;;;;;;;9.12;100.00;100663.13;1743537;82;21937;-67
2022/11/11 05:09:40;;;;;;;19.90;13.10;;;;;;;9.11;100.00;100670.98;1720060;81;21052;-66
2022/11/11 05:12:25;;;;;;;21.80;13.05;;;;;;;9.18;100.00;100672.20;1736394;82;21027;-65
2022/11/11 05:21:22;;;;;;;19.77;13.83;;;;;;;9.16;100.00;100683.33;1710522;82;21039;-65
2022/11/11 05:27:12;;;;;;;20.05;13.62;;;;;;;9.11;100.00;100691.35;1728782;82;20950;-65
2022/11/11 05:29:56;;;;;;;19.23;12.98;;;;;;;9.07;100.00;100698.33;1718471;82;21025;-67
2022/11/11 05:32:41;;;;;;;21.05;14.35;;;;;;;9.06;100.00;100699.41;1719074;82;20982;-68
2022/11/11 05:35:26;;;;;;;18.10;12.85;;;;;;;9.07;100.00;100707.03;1718186;82;21029;-67
2022/11/11 05:38:19;;;;;;;19.42;12.82;;;;;;;9.02;100.00;100705.02;1725866;81;21058;-67
2022/11/11 05:41:04;;;;;;;19.75;13.28;;;;;;;9.01;100.00;100714.22;1715781;82;21086;-68
2022/11/11 05:43:49;;;;;;;23.30;14.80;;;;;;;8.99;100.00;100719.08;1713783;82;20990;-67
2022/11/11 05:46:34;;;;;;;23.02;15.48;;;;;;;9.00;100.00;100725.61;1718003;82;21967;-67
2022/11/11 05:49:18;;;;;;;21.85;15.28;;;;;;;9.01;100.00;100722.38;1722906;81;21003;-67
2022/11/11 05:52:04;;;;;;;20.60;14.35;;;;;;;9.01;100.00;100729.16;1700855;82;21029;-67
2022/11/11 05:54:50;;;;;;;19.60;14.75;;;;;;;9.02;100.00;100739.50;1707629;81;21106;-63
2022/11/11 10:46:41;;;;;;;17.20;13.80;;;;;;;10.21;100.00;100863.85;1773782;79;22227;-75
2022/11/11 10:49:30;;;;;;;15.23;11.73;;;;;;;10.36;100.00;100868.23;1716650;81;21528;-75
2022/11/11 10:52:22;;;;;;;15.83;11.35;;;;;;;10.59;100.00;100855.07;1724790;82;21028;-75
2022/11/11 10:55:35;;;;;;;15.00;10.55;;;;;;;10.78;100.00;100860.03;1720405;82;21053;-75
2022/11/11 10:58:39;;;;;;;12.10;9.23;;;;;;;10.99;100.00;100853.03;1687691;83;21091;-76
2022/11/11 11:01:31;;;;;;;11.48;8.80;;;;;;;11.13;100.00;100854.35;1675632;84;21071;-76
2022/11/11 11:04:27;;;;;;;12.05;8.25;;;;;;;11.27;100.00;100849.38;1662683;85;21210;-75
2022/11/11 11:07:22;;;;;;;11.33;7.83;;;;;;;11.35;100.00;100841.63;1687253;83;21634;-73
2022/11/11 11:10:15;;;;;;;11.12;7.97;;;;;;;11.42;100.00;100832.73;1669897;84;21106;-73
2022/11/11 11:13:06;;;;;;;12.65;8.33;;;;;;;11.51;100.00;100827.69;1666966;85;21760;-73
2022/11/11 11:15:56;;;;;;;11.93;7.22;;;;;;;11.66;100.00;100827.87;1691855;84;21081;-72
2022/11/11 11:18:41;;;;;;;10.60;7.83;;;;;;;11.85;100.00;100818.34;1689608;83;21122;-74
2022/11/11 11:21:26;;;;;;;10.05;6.22;;;;;;;11.98;100.00;100823.94;1660570;84;21495;-74
2022/11/11 11:24:27;;;;;;;12.10;6.47;;;;;;;12.02;100.00;100818.80;1699641;83;21091;-74
2022/11/11 11:27:13;;;;;;;9.33;6.42;;;;;;;12.07;100.00;100803.33;1694602;84;21684;-74
2022/11/11 11:30:03;;;;;;;8.40;6.25;;;;;;;12.18;100.00;100811.09;1652424;84;21106;-73
2022/11/11 11:32:58;;;;;;;9.10;5.90;;;;;;;12.27;100.00;100801.34;1672296;83;22555;-74
2022/11/11 11:35:44;;;;;;;6.95;4.37;;;;;;;12.20;100.00;100792.53;1694281;83;21097;-73
2022/11/11 11:38:42;;;;;;;6.92;4.78;;;;;;;12.17;100.00;100794.41;1662584;84;21652;-73
2022/11/11 11:41:49;;;;;;;8.25;5.80;;;;;;;12.14;100.00;100795.77;1652843;85;21091;-73
2022/11/11 11:44:33;;;;;;;8.10;5.97;;;;;;;12.10;100.00;100804.17;1647561;86;21635;-73
2022/11/11 11:47:36;;;;;;;10.43;5.85;;;;;;;12.02;100.00;100795.06;1656558;86;21056;-73
2022/11/11 11:50:55;;;;;;;8.20;5.45;;;;;;;11.99;100.00;100806.50;1607895;85;21002;-73
2022/11/11 11:54:04;;;;;;;8.78;5.40;;;;;;;11.96;100.00;100795.56;1663003;85;21901;-73
2022/11/11 11:56:55;;;;;;;10.18;5.85;;;;;;;11.92;100.00;100811.33;1696413;83;21042;-73
2022/11/11 11:59:51;;;;;;;9.35;5.58;;;;;;;11.85;100.00;100805.23;1681478;83;21067;-73
2022/11/11 12:02:59;;;;;;;9.23;7.08;;;;;;;11.88;100.00;100811.01;1674531;85;20963;-74
2022/11/11 12:05:49;;;;;;;9.68;7.40;;;;;;;11.88;100.00;100809.64;1663971;85;21020;-73
2022/11/11 12:09:26;;;;;;;12.50;6.78;;;;;;;11.81;100.00;100810.91;1705192;83;21129;-73
2022/11/11 12:12:32;;;;;;;11.12;7.08;;;;;;;11.80;100.00;100807.35;1679244;85;21059;-73
2022/11/11 12:15:37;;;;;;;8.28;5.85;;;;;;;11.82;100.00;100820.75;1682709;84;21083;-74
2022/11/11 12:19:00;;;;;;;7.83;5.35;;;;;;;11.74;100.00;100821.19;1674280;84;21079;-74
2022/11/11 12:22:00;;;;;;;7.30;5.22;;;;;;;11.70;100.00;100825.46;1645735;86;21101;-73
2022/11/11 12:25:13;;;;;;;9.73;5.70;;;;;;;11.66;100.00;100819.69;1662229;85;21159;-73
2022/11/11 12:28:33;;;;;;;9.95;6.22;;;;;;;11.62;100.00;100821.83;1661724;84;21122;-72
2022/11/11 12:31:37;;;;;;;;;;;;;;;11.51;100.00;100816.78;1671304;84;21121;-73
2022/11/11 12:34:56;;;;;;;9.98;6.37;;;;;;;11.52;100.00;100825.22;1675736;84;20117;-73
2022/11/11 12:38:12;;;;;;;10.85;6.10;;;;;;;11.55;100.00;100821.19;1648640;86;21087;-73
2022/11/11 12:41:09;;;;;;;9.63;6.08;;;;;;;11.62;100.00;100822.63;1664483;84;21059;-73
2022/11/11 12:44:10;;;;;;;11.05;7.83;;;;;;;11.61;100.00;100822.36;1672047;84;21617;-73
2022/11/11 12:47:34;;;;;;;11.08;6.47;;;;;;;11.62;100.00;100825.92;1653924;86;21058;-73
2022/11/11 12:50:27;;;;;;;10.43;7.40;;;;;;;11.60;100.00;100828.89;1641403;86;21038;-73
2022/11/11 12:53:45;;;;;;;11.20;5.85;;;;;;;11.59;100.00;100834.05;1690332;85;21099;-73
2022/11/11 12:56:47;;;;;;;12.13;5.78;;;;;;;11.57;100.00;100838.11;1662360;85;21098;-73
2022/11/11 12:59:55;;;;;;;10.15;6.00;;;;;;;11.43;100.00;100849.38;1679122;84;21112;-73
2022/11/11 13:03:13;;;;;;;8.63;5.10;;;;;;;11.37;100.00;100850.92;1684190;84;21063;-72
2022/11/11 13:06:31;;;;;;;10.68;7.05;;;;;;;11.36;100.00;100848.73;1687114;84;21106;-72
2022/11/11 13:10:11;;;;;;;11.70;7.67;;;;;;;11.24;100.00;100848.52;1682496;85;21146;-72
2022/11/11 13:13:37;;;;;;;11.57;7.97;;;;;;;11.18;100.00;100853.61;1684484;84;21095;-73
2022/11/11 13:16:23;;;;;;;10.63;5.85;;;;;;;11.21;100.00;100856.67;1653198;84;21116;-73
2022/11/11 13:19:40;;;;;;;14.73;9.63;;;;;;;11.20;100.00;100869.17;1689618;85;21102;-73
2022/11/11 13:22:28;;;;;;;13.03;10.18;;;;;;;11.16;100.00;100876.22;1676267;84;21083;-73
2022/11/11 13:25:18;;;;;;;13.72;8.53;;;;;;;11.14;100.00;100871.53;1681733;85;21606;-73
2022/11/11 13:28:33;;;;;;;8.65;5.85;;;;;;;11.10;100.00;100871.20;1646863;86;21110;-73
2022/11/11 13:31:32;;;;;;;6.62;4.47;;;;;;;11.10;100.00;100875.29;1686747;84;21110;-73
2022/11/11 13:34:17;;;;;;;6.33;4.55;;;;;;;10.99;100.00;100873.47;1680875;84;21135;-72
2022/11/11 13:37:04;;;;;;;7.78;4.80;;;;;;;10.90;100.00;100880.41;1690290;85;21882;-74
2022/11/11 13:39:49;;;;;;;7.42;4.85;;;;;;;10.89;100.00;100882.83;1689381;84;22019;-73
2022/11/11 13:42:40;;;;;;;6.90;4.90;;;;;;;10.87;100.00;100883.09;1647805;85;21820;-73
2022/11/11 13:45:30;;;;;;;6.92;4.85;;;;;;;10.76;100.00;100889.43;1690975;84;21056;-73
2022/11/11 13:48:28;;;;;;;7.95;4.55;;;;;;;10.73;100.00;100891.29;1720538;82;21083;-73
2022/11/11 13:51:31;;;;;;;7.22;4.70;;;;;;;10.72;100.00;100905.97;1703582;83;21086;-73
2022/11/11 13:54:36;;;;;;;8.53;5.08;;;;;;;10.73;100.00;100913.61;1726568;81;21079;-72
2022/11/11 13:57:26;;;;;;;8.55;5.17;;;;;;;10.73;100.00;100908.16;1716892;82;21116;-74
2022/11/11 14:00:23;;;;;;;10.35;7.75;;;;;;;10.65;100.00;100905.29;1724339;82;21011;-73
2022/11/11 14:03:21;;;;;;;12.03;8.95;;;;;;;10.58;100.00;100913.31;1684680;83;21098;-73
2022/11/11 14:06:21;;;;;;;10.35;8.80;;;;;;;10.58;100.00;100917.39;1671092;85;21096;-73
2022/11/11 14:09:07;;;;;;;11.70;9.13;;;;;;;10.67;100.00;100918.11;1663229;85;21149;-72
2022/11/11 14:12:14;;;;;;;13.30;9.73;;;;;;;10.70;100.00;100918.98;1668144;85;21143;-73
2022/11/11 14:15:02;;;;;;;14.47;10.67;;;;;;;10.72;100.00;100918.75;1677910;83;21468;-73
2022/11/11 17:51:50;;;;;;;52.62;35.98;;;;;;;6.39;100.00;100970.96;1786905;78;22932;-71
2022/11/11 17:54:36;;;;;;;39.10;27.55;;;;;;;6.37;100.00;100978.47;1730265;81;21050;-70
2022/11/11 17:57:21;;;;;;;36.38;23.98;;;;;;;6.48;100.00;100983.19;1732998;81;21081;-70
2022/11/11 18:00:07;;;;;;;25.08;17.77;;;;;;;6.60;100.00;100984.70;1705671;82;21411;-70
2022/11/11 18:02:52;;;;;;;24.63;18.07;;;;;;;6.71;100.00;100980.48;1735560;82;21094;-70
2022/11/11 18:05:37;;;;;;;24.43;17.82;;;;;;;6.80;100.00;100977.84;1729477;81;21021;-71
2022/11/11 18:08:21;;;;;;;21.68;16.52;;;;;;;6.90;100.00;100980.91;1733955;81;21555;-70
2022/11/11 18:11:07;;;;;;;23.25;16.35;;;;;;;7.00;100.00;100990.73;1736670;81;21014;-70
2022/11/11 18:13:52;;;;;;;23.47;16.65;;;;;;;7.09;100.00;100981.28;1744075;81;20998;-70
2022/11/11 18:16:37;;;;;;;18.30;13.35;;;;;;;7.17;100.00;100983.73;1732127;80;21094;-71
2022/11/11 18:19:23;;;;;;;18.42;11.97;;;;;;;7.25;100.00;100982.64;1749605;82;20967;-71
2022/11/11 18:22:07;;;;;;;18.50;12.82;;;;;;;7.30;100.00;100977.38;1738750;81;21613;-71
2022/11/11 18:24:53;;;;;;;16.30;11.43;;;;;;;7.32;100.00;100979.36;1736964;81;21809;-70
2022/11/11 18:27:37;;;;;;;13.80;10.88;;;;;;;7.34;100.00;100975.37;1736247;81;21612;-71
2022/11/11 18:30:22;;;;;;;17.52;12.03;;;;;;;7.40;100.00;100983.95;1736465;82;21036;-71
2022/11/11 18:33:07;;;;;;;17.15;13.55;;;;;;;7.43;100.00;100979.48;1729958;82;21109;-71
2022/11/11 18:35:52;;;;;;;21.45;13.13;;;;;;;7.47;100.00;100978.52;1727620;80;21030;-71
2022/11/11 18:38:38;;;;;;;22.35;16.82;;;;;;;7.48;100.00;100983.69;1734986;82;20979;-71
2022/11/11 18:41:23;;;;;;;23.25;19.30;;;;;;;7.43;100.00;100977.30;1734769;80;21051;-70
2022/11/11 18:44:08;;;;;;;19.20;13.50;;;;;;;7.42;100.00;100975.63;1740369;82;21039;-70
2022/11/11 18:46:54;;;;;;;16.48;11.38;;;;;;;7.44;100.00;100970.28;1736491;81;21152;-70
2022/11/11 18:49:40;;;;;;;16.17;11.57;;;;;;;7.40;100.00;100980.45;1741810;81;21027;-73
2022/11/11 18:52:25;;;;;;;14.33;10.30;;;;;;;7.40;100.00;100980.45;1732253;82;21152;-70
2022/11/11 18:55:09;;;;;;;13.32;9.15;;;;;;;7.36;100.00;100988.19;1734444;82;21563;-70
2022/11/11 18:57:55;;;;;;;15.38;9.48;;;;;;;7.31;100.00;100983.94;1692482;83;21075;-71
2022/11/11 19:00:40;;;;;;;15.75;9.03;;;;;;;7.12;100.00;100976.78;1694231;83;21062;-71
2022/11/11 19:03:27;;;;;;;15.58;10.05;;;;;;;7.05;100.00;100986.83;1695805;83;21117;-71
2022/11/11 19:06:12;;;;;;;15.32;10.68;;;;;;;6.99;100.00;100986.35;1690521;83;21100;-71
2022/11/11 19:09:00;;;;;;;12.20;7.80;;;;;;;7.00;100.00;100996.14;1706668;83;21011;-71
2022/11/11 19:11:45;;;;;;;15.48;9.20;;;;;;;6.96;100.00;100994.91;1695444;83;21094;-72
2022/11/11 19:14:31;;;;;;;15.23;8.55;;;;;;;6.87;100.00;100996.23;1691120;84;21070;-71
2022/11/11 19:17:15;;;;;;;15.93;10.60;;;;;;;6.87;100.00;100997.03;1709007;83;21403;-71
2022/11/11 19:20:00;;;;;;;12.07;9.15;;;;;;;6.89;100.00;100995.48;1708045;83;21031;-71
2022/11/11 19:22:46;;;;;;;14.70;9.63;;;;;;;6.90;100.00;100997.98;1681256;83;21708;-71
2022/11/11 19:25:32;;;;;;;12.82;9.30;;;;;;;6.91;100.00;101005.03;1698225;84;21069;-72
2022/11/11 19:28:17;;;;;;;18.42;11.38;;;;;;;6.88;100.00;101003.28;1670211;83;21126;-70
2022/11/11 19:31:08;;;;;;;16.40;9.50;;;;;;;6.82;100.00;100999.58;1695302;83;21082;-70
2022/11/11 19:33:56;;;;;;;14.15;8.05;;;;;;;6.82;100.00;101006.87;1681416;83;21078;-71
2022/11/11 19:36:41;;;;;;;13.90;7.78;;;;;;;6.78;100.00;101011.05;1680412;83;21632;-70
2022/11/11 19:39:26;;;;;;;11.22;6.75;;;;;;;6.75;100.00;101015.02;1689234;83;21058;-71
2022/11/11 19:42:11;;;;;;;13.90;7.80;;;;;;;6.74;100.00;101007.11;1683477;83;21086;-71
2022/11/11 19:44:57;;;;;;;11.57;8.03;;;;;;;6.66;100.00;101004.13;1698256;83;21580;-71
2022/11/11 19:47:42;;;;;;;13.83;8.08;;;;;;;6.55;100.00;101002.64;1698551;83;21074;-71
2022/11/11 19:50:26;;;;;;;14.43;8.58;;;;;;;6.49;100.00;100998.38;1699735;83;21791;-71
2022/11/11 19:53:12;;;;;;;16.93;8.43;;;;;;;6.50;100.00;101001.41;1700489;84;21088;-71
2022/11/11 19:56:03;;;;;;;16.87;8.73;;;;;;;6.46;100.00;100994.75;1695437;84;22208;-71
2022/11/11 19:58:50;;;;;;;12.98;8.33;;;;;;;6.40;100.00;100993.44;1703562;83;20972;-70
2022/11/11 20:01:35;;;;;;;12.88;8.10;;;;;;;6.37;100.00;100999.28;1691159;83;21059;-71
2022/11/11 20:04:20;;;;;;;12.70;7.10;;;;;;;6.33;100.00;100993.98;1697374;83;21830;-70
2022/11/11 20:07:05;;;;;;;12.28;6.47;;;;;;;6.28;100.00;101001.89;1695554;83;21629;-71
2022/11/11 20:09:50;;;;;;;12.37;7.15;;;;;;;6.27;100.00;100994.84;1696280;83;21448;-71
2022/11/11 20:12:35;;;;;;;16.60;8.53;;;;;;;6.22;100.00;101000.88;1697551;83;21555;-71
2022/11/11 20:15:19;;;;;;;13.83;8.68;;;;;;;6.22;100.00;100998.17;1694601;83;21009;-71
2022/11/11 20:18:06;;;;;;;12.50;8.80;;;;;;;6.24;100.00;101004.19;1698049;83;21099;-71
2022/11/11 20:20:50;;;;;;;12.53;8.28;;;;;;;6.23;100.00;101000.36;1734251;82;21046;-73
2022/11/11 20:23:39;;;;;;;11.83;9.48;;;;;;;6.25;100.00;101005.02;1737104;82;21048;-71
2022/11/11 20:26:24;;;;;;;15.53;9.10;;;;;;;6.22;100.00;101004.94;1731256;82;21046;-71
2022/11/11 20:29:09;;;;;;;22.80;12.43;;;;;;;6.23;100.00;101004.42;1730701;82;21123;-73
2022/11/11 20:31:54;;;;;;;18.60;10.53;;;;;;;6.26;100.00;101009.40;1730363;81;21135;-71
2022/11/11 20:34:40;;;;;;;21.10;11.05;;;;;;;6.28;100.00;101013.54;1730285;82;21070;-70
2022/11/11 20:37:26;;;;;;;16.97;9.68;;;;;;;6.26;100.00;101018.34;1735214;81;21443;-72
2022/11/11 20:40:12;;;;;;;17.60;10.88;;;;;;;6.19;100.00;101022.94;1730895;81;21768;-70
2022/11/11 20:42:59;;;;;;;27.60;19.32;;;;;;;6.16;100.00;101019.31;1731323;81;21054;-71
2022/11/11 20:45:45;;;;;;;;;;;;;;;6.19;100.00;101017.53;1730604;82;21074;-70
2022/11/11 20:48:30;;;;;;;28.45;18.70;;;;;;;6.21;100.00;101016.78;1721435;82;20152;-71
2022/11/11 20:51:22;;;;;;;17.87;12.82;;;;;;;6.10;100.00;101017.95;1722579;82;21090;-71
2022/11/11 20:54:07;;;;;;;15.55;8.68;;;;;;;6.03;100.00;101012.56;1713629;82;21015;-71
2022/11/11 20:56:52;;;;;;;13.80;7.70;;;;;;;6.04;100.00;101016.10;1712046;82;21440;-70
2022/11/11 20:59:37;;;;;;;20.55;12.82;;;;;;;6.06;100.00;101020.80;1705031;82;21015;-71
2022/11/11 21:02:22;;;;;;;19.90;13.93;;;;;;;6.00;100.00;101015.69;1710194;82;21701;-70
2022/11/11 21:05:08;;;;;;;18.85;13.08;;;;;;;5.94;100.00;101015.19;1718618;82;21103;-70
2022/11/11 21:07:54;;;;;;;16.37;11.48;;;;;;;5.94;100.00;101018.73;1715240;82;21149;-71
2022/11/11 21:10:39;;;;;;;15.23;10.90;;;;;;;5.97;100.00;101023.71;1697756;82;21058;-70
2022/11/11 21:13:24;;;;;;;18.27;11.38;;;;;;;5.92;100.00;101014.04;1716907;82;21163;-71
2022/11/11 21:16:16;;;;;;;13.40;9.80;;;;;;;5.86;100.00;101009.48;1704432;82;21065;-70
2022/11/11 21:19:02;;;;;;;14.73;9.55;;;;;;;5.86;100.00;101014.05;1720743;82;21077;-70
2022/11/11 21:21:48;;;;;;;13.95;9.85;;;;;;;5.85;100.00;101017.75;1705661;82;21076;-71
2022/11/11 21:24:34;;;;;;;14.60;11.57;;;;;;;5.82;100.00;101022.23;1707377;82;21089;-71
2022/11/11 21:27:19;;;;;;;19.62;13.35;;;;;;;5.76;100.00;101013.63;1717045;82;21126;-70
2022/11/11 21:30:05;;;;;;;15.08;10.85;;;;;;;5.69;100.00;101019.55;1710124;82;21074;-70
2022/11/11 21:32:51;;;;;;;16.55;11.45;;;;;;;5.66;100.00;101018.11;1705954;82;21082;-71
2022/11/11 21:35:36;;;;;;;16.67;9.50;;;;;;;5.65;100.00;101024.55;1720623;82;20983;-71
2022/11/11 21:38:21;;;;;;;16.60;9.95;;;;;;;5.67;100.00;101019.75;1709049;82;21604;-70
2022/11/11 21:41:10;;;;;;;14.90;9.55;;;;;;;5.68;100.00;101023.28;1716117;82;21466;-70
2022/11/11 21:43:55;;;;;;;13.35;9.53;;;;;;;5.65;100.00;101024.55;1717399;82;21030;-71
2022/11/11 21:46:40;;;;;;;16.32;9.60;;;;;;;5.60;100.00;101023.52;1712139;82;21085;-70
2022/11/11 21:49:25;;;;;;;17.90;11.48;;;;;;;5.60;100.00;101027.57;1716028;82;21015;-71
2022/11/11 21:52:10;;;;;;;16.62;10.82;;;;;;;5.59;100.00;101028.59;1720261;81;21106;-70
2022/11/11 21:54:55;;;;;;;14.70;9.88;;;;;;;5.51;100.00;101031.82;1731706;82;21592;-71
2022/11/11 21:57:41;;;;;;;16.10;10.90;;;;;;;5.49;100.00;101028.48;1730457;82;21117;-70
2022/11/11 22:00:26;;;;;;;17.27;10.95;;;;;;;5.47;100.00;101035.97;1692328;83;21036;-71
2022/11/11 22:03:11;;;;;;;17.50;10.40;;;;;;;5.48;100.00;101029.53;1722967;82;21071;-71
2022/11/11 22:06:04;;;;;;;18.30;11.90;;;;;;;5.51;100.00;101032.34;1729087;82;21033;-71
2022/11/11 22:08:51;;;;;;;18.40;12.30;;;;;;;5.53;100.00;101031.08;1727914;82;21054;-70
2022/11/11 22:11:36;;;;;;;16.87;11.43;;;;;;;5.53;100.00;101019.98;1731780;82;21075;-70
2022/11/11 22:14:21;;;;;;;18.27;12.00;;;;;;;5.51;100.00;101026.94;1727863;82;21004;-70
2022/11/11 22:17:07;;;;;;;16.07;11.12;;;;;;;5.45;100.00;101029.13;1727177;82;21652;-70
2022/11/11 22:19:52;;;;;;;19.77;11.88;;;;;;;5.38;100.00;101025.07;1734345;82;21027;-71
2022/11/11 22:22:38;;;;;;;24.77;12.60;;;;;;;5.37;100.00;101030.15;1725126;81;21086;-71